Airfield :







YOU CAN JOIN US ON...

 
LOGIN :

Register | Disclaimer

   EN    FR    IT 

 









Legend :    VFR   Marginal VFR   IFR   Intensive IFR   Very Intensive IFR
Visi :
Ceiling :
>= 8 km
>= 3000ft
5 to 8 km
1000 to 3000 ft
1500m to 5 km
500 to 1000 ft
800 to 1500m
200 to 500 ft
< 800m
< 200 ft
Symbols :   Thunderstorms  Fog  Heavy snow  Heavy precipitations  Wind > 20 kt






- Airport Elevation : 68 ft
- IATA code : YFC


CYFC - Fredericton

CURRENT METAR :
  • 020900Z AUTO 01013G18KT 9SM -RA OVC015 02/02 A2962 RMK SLP032

EXPIRED METARs :
  • 020843Z AUTO 01011KT 6SM RA BR OVC017 02/02 A2962 RMK SLP033
  • 020800Z AUTO 01009KT 4SM -RA BR OVC017 02/02 A2963 RMK SLP036
  • 020759Z AUTO 01009KT 5SM -RA BR OVC017 02/02 A2963 RMK SLP036
  • 020756Z AUTO 01009KT 6SM -RA BR OVC017 02/02 A2963 RMK SLP036
  • 020731Z AUTO 01010KT 5SM RA BR OVC015 02/02 A2963 RMK SLP037
  • 020701Z AUTO 01009KT 6SM RA BR OVC013 02/02 A2965 RMK SLP042

TAF TAF CYFC
Valid from the 02 at 06:00 until the 02 at 18:00 UTC


020540Z 0206/0218 01008KT 6SM -RA BR OVC012
TEMPO 0206/0214 21/2SM -RA BR OVC008
PROB40 0206/0214 11/2SM -RA BR
FM021400 03012G22KT P6SM -RA OVC015
TEMPO 0214/0218 4SM -RA BR OVC009 RMK FCST BASED ON AUTO OBS. NXT FCST BY 021200Z



MET'MAP, your aeronautical weather chart ! - Copyright ORBIFLY December 2007 - Disclaimer

ORBIFLY MET'MAP TEAM :

Programming & Development : Alexandra Zaïnal
Concept & original design : Baudouin d'Aumeries
Assistance for programming : Marc-Olivier Méhu
Technical & hardware support : Manuel Goepfert

Contact : metmap@orbifly.com




SOURCES & CREDITS :

   NOAA